sensor_id;sensor_type;location;lat;lon;timestamp;P1;durP1;ratioP1;P2;durP2;ratioP2
69912;SDS011;57198;52.082;5.108;2023-03-14T00:00:58;21.05;;;4.38;;
69912;SDS011;57198;52.082;5.108;2023-03-14T00:03:28;21.60;;;4.28;;
69912;SDS011;57198;52.082;5.108;2023-03-14T00:05:55;15.90;;;3.50;;
69912;SDS011;57198;52.082;5.108;2023-03-14T00:08:22;16.80;;;4.72;;
69912;SDS011;57198;52.082;5.108;2023-03-14T00:10:51;18.90;;;4.63;;
69912;SDS011;57198;52.082;5.108;2023-03-14T00:13:18;15.90;;;3.72;;
69912;SDS011;57198;52.082;5.108;2023-03-14T00:15:45;16.48;;;3.70;;
69912;SDS011;57198;52.082;5.108;2023-03-14T00:18:12;18.33;;;4.37;;
69912;SDS011;57198;52.082;5.108;2023-03-14T00:20:40;20.98;;;4.05;;
69912;SDS011;57198;52.082;5.108;2023-03-14T00:23:07;13.25;;;3.80;;
69912;SDS011;57198;52.082;5.108;2023-03-14T00:25:34;13.85;;;3.58;;
69912;SDS011;57198;52.082;5.108;2023-03-14T00:28:02;13.15;;;4.00;;
69912;SDS011;57198;52.082;5.108;2023-03-14T00:30:29;14.53;;;2.57;;
69912;SDS011;57198;52.082;5.108;2023-03-14T00:32:56;14.90;;;2.90;;
69912;SDS011;57198;52.082;5.108;2023-03-14T00:35:24;12.20;;;2.13;;
69912;SDS011;57198;52.082;5.108;2023-03-14T00:37:51;11.73;;;3.25;;
69912;SDS011;57198;52.082;5.108;2023-03-14T00:40:19;8.57;;;1.90;;
69912;SDS011;57198;52.082;5.108;2023-03-14T00:42:47;10.10;;;2.73;;
69912;SDS011;57198;52.082;5.108;2023-03-14T00:45:15;8.68;;;2.03;;
69912;SDS011;57198;52.082;5.108;2023-03-14T00:47:42;7.00;;;2.33;;
69912;SDS011;57198;52.082;5.108;2023-03-14T00:50:12;6.97;;;2.40;;
69912;SDS011;57198;52.082;5.108;2023-03-14T00:52:39;7.85;;;2.47;;
69912;SDS011;57198;52.082;5.108;2023-03-14T00:55:08;5.93;;;1.37;;
69912;SDS011;57198;52.082;5.108;2023-03-14T00:57:35;11.27;;;2.60;;
69912;SDS011;57198;52.082;5.108;2023-03-14T01:00:03;12.55;;;2.20;;
69912;SDS011;57198;52.082;5.108;2023-03-14T01:02:32;7.25;;;2.00;;
69912;SDS011;57198;52.082;5.108;2023-03-14T01:05:00;6.93;;;2.97;;
69912;SDS011;57198;52.082;5.108;2023-03-14T01:07:27;9.60;;;2.90;;
69912;SDS011;57198;52.082;5.108;2023-03-14T01:09:55;6.13;;;2.55;;
69912;SDS011;57198;52.082;5.108;2023-03-14T01:12:22;7.70;;;2.00;;
69912;SDS011;57198;52.082;5.108;2023-03-14T01:14:49;6.03;;;2.08;;
69912;SDS011;57198;52.082;5.108;2023-03-14T01:17:17;3.80;;;2.00;;
69912;SDS011;57198;52.082;5.108;2023-03-14T01:19:44;4.80;;;2.57;;
69912;SDS011;57198;52.082;5.108;2023-03-14T01:22:11;6.72;;;2.47;;
69912;SDS011;57198;52.082;5.108;2023-03-14T01:24:38;14.93;;;2.65;;
69912;SDS011;57198;52.082;5.108;2023-03-14T01:27:06;7.43;;;2.28;;
69912;SDS011;57198;52.082;5.108;2023-03-14T01:29:33;8.52;;;2.45;;
69912;SDS011;57198;52.082;5.108;2023-03-14T01:32:00;10.40;;;2.83;;
69912;SDS011;57198;52.082;5.108;2023-03-14T01:34:28;6.13;;;2.20;;
69912;SDS011;57198;52.082;5.108;2023-03-14T01:36:55;6.15;;;2.08;;
69912;SDS011;57198;52.082;5.108;2023-03-14T01:39:22;10.07;;;2.45;;
69912;SDS011;57198;52.082;5.108;2023-03-14T01:41:50;6.85;;;2.17;;
69912;SDS011;57198;52.082;5.108;2023-03-14T01:44:17;7.22;;;2.10;;
69912;SDS011;57198;52.082;5.108;2023-03-14T01:46:45;11.30;;;2.35;;
69912;SDS011;57198;52.082;5.108;2023-03-14T01:52:02;8.02;;;2.00;;
69912;SDS011;57198;52.082;5.108;2023-03-14T01:54:36;9.70;;;2.47;;
69912;SDS011;57198;52.082;5.108;2023-03-14T01:57:07;10.80;;;2.33;;
69912;SDS011;57198;52.082;5.108;2023-03-14T01:59:35;8.38;;;2.60;;
69912;SDS011;57198;52.082;5.108;2023-03-14T02:02:04;11.20;;;2.17;;
69912;SDS011;57198;52.082;5.108;2023-03-14T02:04:34;9.02;;;1.98;;
69912;SDS011;57198;52.082;5.108;2023-03-14T02:07:12;8.10;;;2.58;;
69912;SDS011;57198;52.082;5.108;2023-03-14T02:09:50;8.77;;;2.05;;
69912;SDS011;57198;52.082;5.108;2023-03-14T02:12:22;6.72;;;1.63;;
69912;SDS011;57198;52.082;5.108;2023-03-14T02:15:13;8.20;;;2.00;;
69912;SDS011;57198;52.082;5.108;2023-03-14T02:18:02;6.82;;;1.88;;
69912;SDS011;57198;52.082;5.108;2023-03-14T02:23:43;8.38;;;2.65;;
69912;SDS011;57198;52.082;5.108;2023-03-14T02:26:16;7.00;;;1.80;;
69912;SDS011;57198;52.082;5.108;2023-03-14T02:28:46;3.67;;;2.38;;
69912;SDS011;57198;52.082;5.108;2023-03-14T02:31:14;7.85;;;1.80;;
69912;SDS011;57198;52.082;5.108;2023-03-14T02:33:42;6.35;;;2.10;;
69912;SDS011;57198;52.082;5.108;2023-03-14T02:36:11;7.72;;;2.20;;
69912;SDS011;57198;52.082;5.108;2023-03-14T02:38:43;6.70;;;2.45;;
69912;SDS011;57198;52.082;5.108;2023-03-14T02:41:13;8.27;;;2.30;;
69912;SDS011;57198;52.082;5.108;2023-03-14T02:43:46;14.07;;;2.85;;
69912;SDS011;57198;52.082;5.108;2023-03-14T02:46:16;6.53;;;2.30;;
69912;SDS011;57198;52.082;5.108;2023-03-14T02:48:51;8.73;;;2.57;;
69912;SDS011;57198;52.082;5.108;2023-03-14T02:51:21;7.40;;;2.10;;
69912;SDS011;57198;52.082;5.108;2023-03-14T02:53:48;7.18;;;2.58;;
69912;SDS011;57198;52.082;5.108;2023-03-14T02:56:16;8.68;;;2.08;;
69912;SDS011;57198;52.082;5.108;2023-03-14T02:58:43;9.00;;;3.15;;
69912;SDS011;57198;52.082;5.108;2023-03-14T03:01:37;8.80;;;3.13;;
69912;SDS011;57198;52.082;5.108;2023-03-14T03:04:04;11.30;;;2.72;;
69912;SDS011;57198;52.082;5.108;2023-03-14T03:06:32;7.70;;;2.10;;
69912;SDS011;57198;52.082;5.108;2023-03-14T03:08:59;8.52;;;2.45;;
69912;SDS011;57198;52.082;5.108;2023-03-14T03:11:27;10.90;;;2.58;;
69912;SDS011;57198;52.082;5.108;2023-03-14T03:13:54;6.70;;;2.72;;
69912;SDS011;57198;52.082;5.108;2023-03-14T03:16:22;6.03;;;2.33;;
69912;SDS011;57198;52.082;5.108;2023-03-14T03:18:49;7.93;;;2.08;;
69912;SDS011;57198;52.082;5.108;2023-03-14T03:21:16;10.90;;;2.30;;
69912;SDS011;57198;52.082;5.108;2023-03-14T03:23:45;10.45;;;2.70;;
69912;SDS011;57198;52.082;5.108;2023-03-14T03:26:12;9.13;;;3.07;;
69912;SDS011;57198;52.082;5.108;2023-03-14T03:28:39;7.93;;;2.30;;
69912;SDS011;57198;52.082;5.108;2023-03-14T03:31:10;8.20;;;2.55;;
69912;SDS011;57198;52.082;5.108;2023-03-14T03:33:38;11.02;;;2.70;;
69912;SDS011;57198;52.082;5.108;2023-03-14T03:36:06;9.60;;;2.28;;
69912;SDS011;57198;52.082;5.108;2023-03-14T03:38:36;6.20;;;2.63;;
69912;SDS011;57198;52.082;5.108;2023-03-14T03:41:05;9.07;;;2.38;;
69912;SDS011;57198;52.082;5.108;2023-03-14T03:43:33;6.72;;;2.30;;
69912;SDS011;57198;52.082;5.108;2023-03-14T03:46:03;10.57;;;2.80;;
69912;SDS011;57198;52.082;5.108;2023-03-14T03:48:31;8.20;;;2.40;;
69912;SDS011;57198;52.082;5.108;2023-03-14T03:51:02;12.35;;;2.30;;
69912;SDS011;57198;52.082;5.108;2023-03-14T03:53:30;8.25;;;2.63;;
69912;SDS011;57198;52.082;5.108;2023-03-14T03:56:07;8.52;;;2.38;;
69912;SDS011;57198;52.082;5.108;2023-03-14T03:58:34;7.50;;;2.53;;
69912;SDS011;57198;52.082;5.108;2023-03-14T04:01:03;11.23;;;2.35;;
69912;SDS011;57198;52.082;5.108;2023-03-14T04:03:31;5.70;;;2.20;;
69912;SDS011;57198;52.082;5.108;2023-03-14T04:06:00;10.60;;;2.85;;
69912;SDS011;57198;52.082;5.108;2023-03-14T04:08:27;9.73;;;2.80;;
69912;SDS011;57198;52.082;5.108;2023-03-14T04:10:59;8.23;;;2.85;;
69912;SDS011;57198;52.082;5.108;2023-03-14T04:13:49;8.60;;;2.60;;
69912;SDS011;57198;52.082;5.108;2023-03-14T04:16:19;9.45;;;2.80;;
69912;SDS011;57198;52.082;5.108;2023-03-14T04:18:48;12.95;;;2.60;;
69912;SDS011;57198;52.082;5.108;2023-03-14T04:21:18;9.45;;;2.47;;
69912;SDS011;57198;52.082;5.108;2023-03-14T04:23:49;11.40;;;2.60;;
69912;SDS011;57198;52.082;5.108;2023-03-14T04:26:17;6.82;;;2.40;;
69912;SDS011;57198;52.082;5.108;2023-03-14T04:28:45;10.23;;;2.75;;
69912;SDS011;57198;52.082;5.108;2023-03-14T04:31:13;9.57;;;2.70;;
69912;SDS011;57198;52.082;5.108;2023-03-14T04:33:41;7.90;;;2.80;;
69912;SDS011;57198;52.082;5.108;2023-03-14T04:36:12;7.32;;;2.20;;
69912;SDS011;57198;52.082;5.108;2023-03-14T04:38:40;8.95;;;2.67;;
69912;SDS011;57198;52.082;5.108;2023-03-14T04:41:09;9.85;;;2.42;;
69912;SDS011;57198;52.082;5.108;2023-03-14T04:43:36;9.75;;;2.47;;
69912;SDS011;57198;52.082;5.108;2023-03-14T04:46:06;5.70;;;2.50;;
69912;SDS011;57198;52.082;5.108;2023-03-14T04:48:34;8.73;;;2.85;;
69912;SDS011;57198;52.082;5.108;2023-03-14T04:51:02;6.85;;;2.38;;
69912;SDS011;57198;52.082;5.108;2023-03-14T04:53:32;5.00;;;2.20;;
69912;SDS011;57198;52.082;5.108;2023-03-14T04:56:03;4.40;;;2.47;;
69912;SDS011;57198;52.082;5.108;2023-03-14T04:58:36;10.40;;;2.83;;
69912;SDS011;57198;52.082;5.108;2023-03-14T05:01:04;6.70;;;2.70;;
69912;SDS011;57198;52.082;5.108;2023-03-14T05:04:01;7.20;;;2.75;;
69912;SDS011;57198;52.082;5.108;2023-03-14T05:07:01;6.93;;;2.58;;
69912;SDS011;57198;52.082;5.108;2023-03-14T05:09:51;7.50;;;2.60;;
69912;SDS011;57198;52.082;5.108;2023-03-14T05:12:45;12.75;;;3.03;;
69912;SDS011;57198;52.082;5.108;2023-03-14T05:15:31;5.47;;;2.47;;
69912;SDS011;57198;52.082;5.108;2023-03-14T05:18:37;3.03;;;2.35;;
69912;SDS011;57198;52.082;5.108;2023-03-14T05:21:24;5.75;;;2.55;;
69912;SDS011;57198;52.082;5.108;2023-03-14T05:24:27;5.25;;;2.90;;
69912;SDS011;57198;52.082;5.108;2023-03-14T05:27:14;5.28;;;2.80;;
69912;SDS011;57198;52.082;5.108;2023-03-14T05:30:20;8.27;;;3.22;;
69912;SDS011;57198;52.082;5.108;2023-03-14T05:33:06;10.77;;;2.95;;
69912;SDS011;57198;52.082;5.108;2023-03-14T05:35:53;8.25;;;3.08;;
69912;SDS011;57198;52.082;5.108;2023-03-14T05:38:44;6.15;;;2.80;;
69912;SDS011;57198;52.082;5.108;2023-03-14T05:41:43;4.55;;;2.72;;
69912;SDS011;57198;52.082;5.108;2023-03-14T05:44:34;3.15;;;2.88;;
69912;SDS011;57198;52.082;5.108;2023-03-14T05:47:11;5.28;;;3.00;;
69912;SDS011;57198;52.082;5.108;2023-03-14T05:49:52;6.22;;;3.35;;
69912;SDS011;57198;52.082;5.108;2023-03-14T05:52:32;4.45;;;3.50;;
69912;SDS011;57198;52.082;5.108;2023-03-14T05:55:11;7.10;;;4.03;;
69912;SDS011;57198;52.082;5.108;2023-03-14T05:57:47;10.30;;;3.35;;
69912;SDS011;57198;52.082;5.108;2023-03-14T06:00:14;8.13;;;3.63;;
69912;SDS011;57198;52.082;5.108;2023-03-14T06:02:54;7.63;;;4.05;;
69912;SDS011;57198;52.082;5.108;2023-03-14T06:05:27;7.18;;;3.90;;
69912;SDS011;57198;52.082;5.108;2023-03-14T06:07:58;8.18;;;4.10;;
69912;SDS011;57198;52.082;5.108;2023-03-14T06:10:28;7.43;;;4.22;;
69912;SDS011;57198;52.082;5.108;2023-03-14T06:12:56;6.53;;;4.32;;
69912;SDS011;57198;52.082;5.108;2023-03-14T06:15:23;7.90;;;4.25;;
69912;SDS011;57198;52.082;5.108;2023-03-14T06:17:54;4.47;;;2.90;;
69912;SDS011;57198;52.082;5.108;2023-03-14T06:20:22;3.50;;;2.30;;
69912;SDS011;57198;52.082;5.108;2023-03-14T06:22:49;3.28;;;1.55;;
69912;SDS011;57198;52.082;5.108;2023-03-14T06:25:17;3.53;;;1.63;;
69912;SDS011;57198;52.082;5.108;2023-03-14T06:27:46;4.38;;;1.98;;
69912;SDS011;57198;52.082;5.108;2023-03-14T06:30:15;2.85;;;1.60;;
69912;SDS011;57198;52.082;5.108;2023-03-14T06:32:43;4.05;;;1.40;;
69912;SDS011;57198;52.082;5.108;2023-03-14T06:35:12;1.85;;;1.42;;
69912;SDS011;57198;52.082;5.108;2023-03-14T06:37:42;2.78;;;1.20;;
69912;SDS011;57198;52.082;5.108;2023-03-14T06:40:10;3.72;;;1.45;;
69912;SDS011;57198;52.082;5.108;2023-03-14T06:42:50;2.08;;;1.27;;
69912;SDS011;57198;52.082;5.108;2023-03-14T06:45:19;2.95;;;1.58;;
69912;SDS011;57198;52.082;5.108;2023-03-14T06:47:48;2.85;;;1.60;;
69912;SDS011;57198;52.082;5.108;2023-03-14T06:50:19;2.58;;;1.30;;
69912;SDS011;57198;52.082;5.108;2023-03-14T06:52:49;3.60;;;1.67;;
69912;SDS011;57198;52.082;5.108;2023-03-14T06:55:20;4.07;;;1.67;;
69912;SDS011;57198;52.082;5.108;2023-03-14T06:57:49;3.20;;;2.10;;
69912;SDS011;57198;52.082;5.108;2023-03-14T07:00:17;2.72;;;1.55;;
69912;SDS011;57198;52.082;5.108;2023-03-14T07:02:44;2.42;;;1.95;;
69912;SDS011;57198;52.082;5.108;2023-03-14T07:05:28;3.80;;;2.10;;
69912;SDS011;57198;52.082;5.108;2023-03-14T07:07:56;2.58;;;1.40;;
69912;SDS011;57198;52.082;5.108;2023-03-14T07:10:23;2.92;;;1.73;;
69912;SDS011;57198;52.082;5.108;2023-03-14T07:12:51;2.42;;;1.40;;
69912;SDS011;57198;52.082;5.108;2023-03-14T07:15:22;3.15;;;1.60;;
69912;SDS011;57198;52.082;5.108;2023-03-14T07:17:55;2.95;;;1.95;;
69912;SDS011;57198;52.082;5.108;2023-03-14T07:20:23;4.13;;;1.58;;
69912;SDS011;57198;52.082;5.108;2023-03-14T07:22:51;4.00;;;1.77;;
69912;SDS011;57198;52.082;5.108;2023-03-14T07:25:29;4.07;;;1.83;;
69912;SDS011;57198;52.082;5.108;2023-03-14T07:27:57;4.78;;;2.28;;
69912;SDS011;57198;52.082;5.108;2023-03-14T07:30:25;4.35;;;1.70;;
69912;SDS011;57198;52.082;5.108;2023-03-14T07:32:54;5.60;;;1.88;;
69912;SDS011;57198;52.082;5.108;2023-03-14T07:35:23;5.40;;;2.08;;
69912;SDS011;57198;52.082;5.108;2023-03-14T07:37:51;4.70;;;1.85;;
69912;SDS011;57198;52.082;5.108;2023-03-14T07:40:26;7.47;;;2.20;;
69912;SDS011;57198;52.082;5.108;2023-03-14T07:42:54;4.65;;;2.30;;
69912;SDS011;57198;52.082;5.108;2023-03-14T07:45:39;7.50;;;1.77;;
69912;SDS011;57198;52.082;5.108;2023-03-14T07:48:08;5.85;;;2.45;;
69912;SDS011;57198;52.082;5.108;2023-03-14T07:50:36;5.32;;;2.28;;
69912;SDS011;57198;52.082;5.108;2023-03-14T07:53:03;5.22;;;2.13;;
69912;SDS011;57198;52.082;5.108;2023-03-14T07:55:30;6.90;;;2.13;;
69912;SDS011;57198;52.082;5.108;2023-03-14T07:57:58;2.78;;;1.85;;
69912;SDS011;57198;52.082;5.108;2023-03-14T08:00:25;3.40;;;1.83;;
69912;SDS011;57198;52.082;5.108;2023-03-14T08:02:53;3.92;;;1.70;;
69912;SDS011;57198;52.082;5.108;2023-03-14T08:05:20;4.25;;;1.90;;
69912;SDS011;57198;52.082;5.108;2023-03-14T08:07:48;2.72;;;1.25;;
69912;SDS011;57198;52.082;5.108;2023-03-14T08:10:15;1.83;;;1.70;;
69912;SDS011;57198;52.082;5.108;2023-03-14T08:12:49;3.85;;;1.80;;
69912;SDS011;57198;52.082;5.108;2023-03-14T08:15:16;3.00;;;1.27;;
69912;SDS011;57198;52.082;5.108;2023-03-14T08:17:44;4.55;;;1.60;;
69912;SDS011;57198;52.082;5.108;2023-03-14T08:20:11;4.38;;;1.73;;
69912;SDS011;57198;52.082;5.108;2023-03-14T08:22:39;5.30;;;2.13;;
69912;SDS011;57198;52.082;5.108;2023-03-14T08:25:06;4.50;;;1.77;;
69912;SDS011;57198;52.082;5.108;2023-03-14T08:27:34;3.13;;;1.70;;
69912;SDS011;57198;52.082;5.108;2023-03-14T08:30:04;2.45;;;1.65;;
69912;SDS011;57198;52.082;5.108;2023-03-14T08:32:32;4.97;;;2.00;;
69912;SDS011;57198;52.082;5.108;2023-03-14T08:34:59;2.38;;;1.40;;
69912;SDS011;57198;52.082;5.108;2023-03-14T08:37:26;4.63;;;1.52;;
69912;SDS011;57198;52.082;5.108;2023-03-14T08:39:54;7.75;;;1.58;;
69912;SDS011;57198;52.082;5.108;2023-03-14T08:42:21;2.13;;;1.45;;
69912;SDS011;57198;52.082;5.108;2023-03-14T08:44:50;4.90;;;1.70;;
69912;SDS011;57198;52.082;5.108;2023-03-14T08:47:17;3.42;;;1.38;;
69912;SDS011;57198;52.082;5.108;2023-03-14T08:49:45;2.38;;;1.00;;
69912;SDS011;57198;52.082;5.108;2023-03-14T08:52:12;4.18;;;2.10;;
69912;SDS011;57198;52.082;5.108;2023-03-14T08:54:45;2.13;;;1.40;;
69912;SDS011;57198;52.082;5.108;2023-03-14T08:57:13;6.05;;;1.70;;
69912;SDS011;57198;52.082;5.108;2023-03-14T08:59:40;4.63;;;1.40;;
69912;SDS011;57198;52.082;5.108;2023-03-14T09:02:10;5.32;;;1.60;;
69912;SDS011;57198;52.082;5.108;2023-03-14T09:04:39;5.90;;;1.70;;
69912;SDS011;57198;52.082;5.108;2023-03-14T09:07:06;4.28;;;1.83;;
69912;SDS011;57198;52.082;5.108;2023-03-14T09:09:33;9.70;;;2.30;;
69912;SDS011;57198;52.082;5.108;2023-03-14T09:12:01;5.47;;;1.77;;
69912;SDS011;57198;52.082;5.108;2023-03-14T09:14:28;3.97;;;1.30;;
69912;SDS011;57198;52.082;5.108;2023-03-14T09:16:55;5.40;;;1.60;;
69912;SDS011;57198;52.082;5.108;2023-03-14T09:19:23;5.53;;;1.88;;
69912;SDS011;57198;52.082;5.108;2023-03-14T09:21:50;9.67;;;2.00;;
69912;SDS011;57198;52.082;5.108;2023-03-14T09:24:17;6.88;;;1.70;;
69912;SDS011;57198;52.082;5.108;2023-03-14T09:26:44;12.63;;;3.00;;
69912;SDS011;57198;52.082;5.108;2023-03-14T09:29:12;13.60;;;2.65;;
69912;SDS011;57198;52.082;5.108;2023-03-14T09:31:39;11.25;;;2.22;;
69912;SDS011;57198;52.082;5.108;2023-03-14T09:34:06;11.50;;;2.77;;
69912;SDS011;57198;52.082;5.108;2023-03-14T09:36:33;14.98;;;3.00;;
69912;SDS011;57198;52.082;5.108;2023-03-14T09:39:01;9.18;;;2.10;;
69912;SDS011;57198;52.082;5.108;2023-03-14T09:41:29;9.57;;;2.67;;
69912;SDS011;57198;52.082;5.108;2023-03-14T09:44:21;13.27;;;2.78;;
69912;SDS011;57198;52.082;5.108;2023-03-14T09:46:46;12.05;;;3.08;;
69912;SDS011;57198;52.082;5.108;2023-03-14T09:49:22;13.18;;;2.40;;
69912;SDS011;57198;52.082;5.108;2023-03-14T09:51:52;9.82;;;2.70;;
69912;SDS011;57198;52.082;5.108;2023-03-14T09:54:39;10.80;;;2.78;;
69912;SDS011;57198;52.082;5.108;2023-03-14T09:57:11;10.27;;;2.42;;
69912;SDS011;57198;52.082;5.108;2023-03-14T09:59:39;13.63;;;2.97;;
69912;SDS011;57198;52.082;5.108;2023-03-14T10:02:20;10.43;;;2.65;;
69912;SDS011;57198;52.082;5.108;2023-03-14T10:04:48;18.80;;;3.97;;
69912;SDS011;57198;52.082;5.108;2023-03-14T10:07:17;15.70;;;3.20;;
69912;SDS011;57198;52.082;5.108;2023-03-14T10:09:47;12.30;;;2.72;;
69912;SDS011;57198;52.082;5.108;2023-03-14T10:12:15;15.57;;;3.37;;
69912;SDS011;57198;52.082;5.108;2023-03-14T10:14:47;13.65;;;3.17;;
69912;SDS011;57198;52.082;5.108;2023-03-14T10:17:16;14.57;;;2.85;;
69912;SDS011;57198;52.082;5.108;2023-03-14T10:19:54;18.13;;;3.50;;
69912;SDS011;57198;52.082;5.108;2023-03-14T10:22:23;16.67;;;3.08;;
69912;SDS011;57198;52.082;5.108;2023-03-14T10:24:52;15.27;;;3.45;;
69912;SDS011;57198;52.082;5.108;2023-03-14T10:27:21;15.18;;;2.88;;
69912;SDS011;57198;52.082;5.108;2023-03-14T10:29:56;12.55;;;2.72;;
69912;SDS011;57198;52.082;5.108;2023-03-14T10:32:43;16.10;;;2.70;;
69912;SDS011;57198;52.082;5.108;2023-03-14T10:40:16;15.18;;;3.20;;
69912;SDS011;57198;52.082;5.108;2023-03-14T10:42:44;15.07;;;2.90;;
69912;SDS011;57198;52.082;5.108;2023-03-14T10:45:33;21.75;;;3.50;;
69912;SDS011;57198;52.082;5.108;2023-03-14T10:48:20;14.82;;;3.67;;
69912;SDS011;57198;52.082;5.108;2023-03-14T10:53:17;11.60;;;3.15;;
69912;SDS011;57198;52.082;5.108;2023-03-14T10:55:45;17.13;;;3.55;;
69912;SDS011;57198;52.082;5.108;2023-03-14T11:03:40;16.27;;;3.80;;
69912;SDS011;57198;52.082;5.108;2023-03-14T11:06:20;15.25;;;3.60;;
69912;SDS011;57198;52.082;5.108;2023-03-14T11:11:25;15.25;;;3.13;;
69912;SDS011;57198;52.082;5.108;2023-03-14T11:14:00;18.80;;;4.13;;
69912;SDS011;57198;52.082;5.108;2023-03-14T11:26:49;10.18;;;3.30;;
69912;SDS011;57198;52.082;5.108;2023-03-14T11:29:25;10.63;;;3.07;;
69912;SDS011;57198;52.082;5.108;2023-03-14T11:31:55;13.18;;;3.03;;
69912;SDS011;57198;52.082;5.108;2023-03-14T11:37:04;11.60;;;3.00;;
69912;SDS011;57198;52.082;5.108;2023-03-14T11:39:41;11.90;;;3.25;;
69912;SDS011;57198;52.082;5.108;2023-03-14T11:42:12;10.60;;;2.43;;
69912;SDS011;57198;52.082;5.108;2023-03-14T11:44:41;11.02;;;2.30;;
69912;SDS011;57198;52.082;5.108;2023-03-14T11:47:10;9.35;;;2.33;;
69912;SDS011;57198;52.082;5.108;2023-03-14T11:52:13;8.48;;;2.35;;
69912;SDS011;57198;52.082;5.108;2023-03-14T11:54:48;9.93;;;2.80;;
69912;SDS011;57198;52.082;5.108;2023-03-14T11:57:18;6.68;;;1.70;;
69912;SDS011;57198;52.082;5.108;2023-03-14T12:02:16;10.05;;;2.53;;
69912;SDS011;57198;52.082;5.108;2023-03-14T12:04:51;9.75;;;2.50;;
69912;SDS011;57198;52.082;5.108;2023-03-14T12:07:21;10.73;;;2.57;;
69912;SDS011;57198;52.082;5.108;2023-03-14T12:09:50;8.82;;;2.60;;
69912;SDS011;57198;52.082;5.108;2023-03-14T12:12:22;11.10;;;2.75;;
69912;SDS011;57198;52.082;5.108;2023-03-14T12:14:52;8.73;;;1.83;;
69912;SDS011;57198;52.082;5.108;2023-03-14T12:17:36;10.48;;;1.90;;
69912;SDS011;57198;52.082;5.108;2023-03-14T12:22:51;7.53;;;2.03;;
69912;SDS011;57198;52.082;5.108;2023-03-14T12:28:02;8.73;;;2.25;;
69912;SDS011;57198;52.082;5.108;2023-03-14T12:35:39;5.70;;;1.95;;
69912;SDS011;57198;52.082;5.108;2023-03-14T12:41:02;9.13;;;3.00;;
69912;SDS011;57198;52.082;5.108;2023-03-14T12:43:32;8.07;;;2.75;;
69912;SDS011;57198;52.082;5.108;2023-03-14T12:48:40;7.95;;;2.22;;
69912;SDS011;57198;52.082;5.108;2023-03-14T12:51:14;5.80;;;1.75;;
69912;SDS011;57198;52.082;5.108;2023-03-14T12:53:50;7.88;;;1.85;;
69912;SDS011;57198;52.082;5.108;2023-03-14T12:56:22;6.25;;;1.50;;
69912;SDS011;57198;52.082;5.108;2023-03-14T13:01:33;5.88;;;2.00;;
69912;SDS011;57198;52.082;5.108;2023-03-14T13:04:08;8.95;;;2.15;;
69912;SDS011;57198;52.082;5.108;2023-03-14T13:09:35;9.50;;;1.70;;
69912;SDS011;57198;52.082;5.108;2023-03-14T13:12:08;9.50;;;1.60;;
69912;SDS011;57198;52.082;5.108;2023-03-14T13:14:40;6.13;;;1.83;;
69912;SDS011;57198;52.082;5.108;2023-03-14T13:17:12;4.85;;;1.50;;
69912;SDS011;57198;52.082;5.108;2023-03-14T13:20:01;4.13;;;1.40;;
69912;SDS011;57198;52.082;5.108;2023-03-14T13:22:31;11.02;;;1.88;;
69912;SDS011;57198;52.082;5.108;2023-03-14T13:25:09;6.70;;;2.50;;
69912;SDS011;57198;52.082;5.108;2023-03-14T13:27:36;8.60;;;1.52;;
69912;SDS011;57198;52.082;5.108;2023-03-14T13:30:14;9.70;;;1.90;;
69912;SDS011;57198;52.082;5.108;2023-03-14T13:32:42;8.57;;;1.92;;
69912;SDS011;57198;52.082;5.108;2023-03-14T13:35:19;9.82;;;2.15;;
69912;SDS011;57198;52.082;5.108;2023-03-14T13:37:46;8.40;;;1.77;;
69912;SDS011;57198;52.082;5.108;2023-03-14T13:40:23;7.80;;;2.70;;
69912;SDS011;57198;52.082;5.108;2023-03-14T13:42:59;7.18;;;1.83;;
69912;SDS011;57198;52.082;5.108;2023-03-14T13:45:26;7.68;;;1.85;;
69912;SDS011;57198;52.082;5.108;2023-03-14T13:47:54;9.13;;;1.50;;
69912;SDS011;57198;52.082;5.108;2023-03-14T13:50:21;7.60;;;2.40;;
69912;SDS011;57198;52.082;5.108;2023-03-14T13:52:54;8.00;;;2.50;;
69912;SDS011;57198;52.082;5.108;2023-03-14T13:55:22;7.63;;;2.38;;
69912;SDS011;57198;52.082;5.108;2023-03-14T13:57:53;6.93;;;1.98;;
69912;SDS011;57198;52.082;5.108;2023-03-14T14:00:24;9.27;;;2.13;;
69912;SDS011;57198;52.082;5.108;2023-03-14T14:02:53;6.87;;;1.93;;
69912;SDS011;57198;52.082;5.108;2023-03-14T14:05:22;5.93;;;1.60;;
69912;SDS011;57198;52.082;5.108;2023-03-14T14:07:50;7.07;;;1.80;;
69912;SDS011;57198;52.082;5.108;2023-03-14T14:10:18;7.97;;;1.88;;
69912;SDS011;57198;52.082;5.108;2023-03-14T14:12:50;5.60;;;1.42;;
69912;SDS011;57198;52.082;5.108;2023-03-14T14:15:24;6.13;;;2.00;;
69912;SDS011;57198;52.082;5.108;2023-03-14T14:17:53;7.25;;;1.88;;
69912;SDS011;57198;52.082;5.108;2023-03-14T14:20:23;6.90;;;1.80;;
69912;SDS011;57198;52.082;5.108;2023-03-14T14:22:58;4.63;;;1.40;;
69912;SDS011;57198;52.082;5.108;2023-03-14T14:25:26;4.10;;;1.73;;
69912;SDS011;57198;52.082;5.108;2023-03-14T14:27:53;8.33;;;1.73;;
69912;SDS011;57198;52.082;5.108;2023-03-14T14:32:48;7.40;;;1.60;;
69912;SDS011;57198;52.082;5.108;2023-03-14T14:35:23;8.30;;;1.40;;
69912;SDS011;57198;52.082;5.108;2023-03-14T14:37:51;9.80;;;1.88;;
69912;SDS011;57198;52.082;5.108;2023-03-14T14:40:19;6.50;;;1.63;;
69912;SDS011;57198;52.082;5.108;2023-03-14T14:42:48;10.50;;;1.52;;
69912;SDS011;57198;52.082;5.108;2023-03-14T14:45:17;5.65;;;1.60;;
69912;SDS011;57198;52.082;5.108;2023-03-14T14:47:49;6.63;;;1.73;;
69912;SDS011;57198;52.082;5.108;2023-03-14T14:50:30;11.85;;;2.20;;
69912;SDS011;57198;52.082;5.108;2023-03-14T14:52:59;6.13;;;2.20;;
69912;SDS011;57198;52.082;5.108;2023-03-14T14:55:31;8.90;;;2.30;;
69912;SDS011;57198;52.082;5.108;2023-03-14T14:58:11;7.90;;;2.00;;
69912;SDS011;57198;52.082;5.108;2023-03-14T15:00:39;9.23;;;1.55;;
69912;SDS011;57198;52.082;5.108;2023-03-14T15:03:10;8.27;;;1.60;;
69912;SDS011;57198;52.082;5.108;2023-03-14T15:05:39;6.77;;;1.27;;
69912;SDS011;57198;52.082;5.108;2023-03-14T15:08:09;6.70;;;2.28;;
69912;SDS011;57198;52.082;5.108;2023-03-14T15:10:37;4.53;;;1.70;;
69912;SDS011;57198;52.082;5.108;2023-03-14T15:13:04;8.40;;;2.03;;
69912;SDS011;57198;52.082;5.108;2023-03-14T15:15:32;7.28;;;2.00;;
69912;SDS011;57198;52.082;5.108;2023-03-14T15:18:00;4.00;;;1.57;;
69912;SDS011;57198;52.082;5.108;2023-03-14T15:20:28;5.32;;;2.15;;
69912;SDS011;57198;52.082;5.108;2023-03-14T15:22:56;6.03;;;1.73;;
69912;SDS011;57198;52.082;5.108;2023-03-14T15:25:23;6.00;;;1.67;;
69912;SDS011;57198;52.082;5.108;2023-03-14T15:28:14;5.07;;;2.13;;
69912;SDS011;57198;52.082;5.108;2023-03-14T15:30:43;7.83;;;1.80;;
69912;SDS011;57198;52.082;5.108;2023-03-14T15:33:10;3.20;;;1.67;;
69912;SDS011;57198;52.082;5.108;2023-03-14T15:35:38;6.10;;;1.75;;
69912;SDS011;57198;52.082;5.108;2023-03-14T15:38:05;7.28;;;1.40;;
69912;SDS011;57198;52.082;5.108;2023-03-14T15:40:32;4.93;;;1.85;;
69912;SDS011;57198;52.082;5.108;2023-03-14T15:43:00;7.67;;;2.33;;
69912;SDS011;57198;52.082;5.108;2023-03-14T15:45:27;4.78;;;1.52;;
69912;SDS011;57198;52.082;5.108;2023-03-14T15:47:54;7.82;;;2.20;;
69912;SDS011;57198;52.082;5.108;2023-03-14T15:50:22;11.75;;;1.75;;
69912;SDS011;57198;52.082;5.108;2023-03-14T15:52:49;4.95;;;2.17;;
69912;SDS011;57198;52.082;5.108;2023-03-14T15:55:16;8.17;;;2.13;;
69912;SDS011;57198;52.082;5.108;2023-03-14T15:57:44;3.15;;;1.50;;
69912;SDS011;57198;52.082;5.108;2023-03-14T16:00:12;4.72;;;2.17;;
69912;SDS011;57198;52.082;5.108;2023-03-14T16:02:41;8.50;;;2.47;;
69912;SDS011;57198;52.082;5.108;2023-03-14T16:05:09;5.53;;;2.03;;
69912;SDS011;57198;52.082;5.108;2023-03-14T16:07:36;7.87;;;2.20;;
69912;SDS011;57198;52.082;5.108;2023-03-14T16:10:04;6.95;;;1.58;;
69912;SDS011;57198;52.082;5.108;2023-03-14T16:12:32;3.97;;;1.55;;